sensor_id;sensor_type;location;lat;lon;timestamp;P1;durP1;ratioP1;P2;durP2;ratioP2
28311;SDS011;15572;48.810;9.148;2024-01-16T00:03:45;5.80;;;3.77;;
28311;SDS011;15572;48.810;9.148;2024-01-16T00:08:41;5.93;;;4.00;;
28311;SDS011;15572;48.810;9.148;2024-01-16T00:13:39;4.27;;;2.93;;
28311;SDS011;15572;48.810;9.148;2024-01-16T00:18:36;8.23;;;3.80;;
28311;SDS011;15572;48.810;9.148;2024-01-16T00:23:32;5.33;;;3.43;;
28311;SDS011;15572;48.810;9.148;2024-01-16T00:28:28;6.53;;;3.80;;
28311;SDS011;15572;48.810;9.148;2024-01-16T00:33:28;6.37;;;3.87;;
28311;SDS011;15572;48.810;9.148;2024-01-16T00:38:24;8.30;;;4.10;;
28311;SDS011;15572;48.810;9.148;2024-01-16T00:43:21;6.60;;;3.67;;
28311;SDS011;15572;48.810;9.148;2024-01-16T00:48:17;5.37;;;3.33;;
28311;SDS011;15572;48.810;9.148;2024-01-16T00:53:17;4.77;;;2.23;;
28311;SDS011;15572;48.810;9.148;2024-01-16T00:58:13;9.47;;;3.50;;
28311;SDS011;15572;48.810;9.148;2024-01-16T01:03:10;5.90;;;3.97;;
28311;SDS011;15572;48.810;9.148;2024-01-16T01:08:06;6.30;;;4.03;;
28311;SDS011;15572;48.810;9.148;2024-01-16T01:13:05;7.77;;;3.90;;
28311;SDS011;15572;48.810;9.148;2024-01-16T01:18:01;6.83;;;3.47;;
28311;SDS011;15572;48.810;9.148;2024-01-16T01:22:59;6.70;;;3.90;;
28311;SDS011;15572;48.810;9.148;2024-01-16T01:27:55;6.20;;;3.67;;
28311;SDS011;15572;48.810;9.148;2024-01-16T01:32:53;5.83;;;3.27;;
28311;SDS011;15572;48.810;9.148;2024-01-16T01:37:49;7.10;;;4.43;;
28311;SDS011;15572;48.810;9.148;2024-01-16T01:42:45;5.73;;;3.00;;
28311;SDS011;15572;48.810;9.148;2024-01-16T01:47:42;6.30;;;3.77;;
28311;SDS011;15572;48.810;9.148;2024-01-16T01:52:40;6.47;;;3.93;;
28311;SDS011;15572;48.810;9.148;2024-01-16T01:57:37;4.83;;;3.43;;
28311;SDS011;15572;48.810;9.148;2024-01-16T02:02:34;6.37;;;3.93;;
28311;SDS011;15572;48.810;9.148;2024-01-16T02:07:30;8.17;;;3.93;;
28311;SDS011;15572;48.810;9.148;2024-01-16T02:12:30;8.00;;;4.43;;
28311;SDS011;15572;48.810;9.148;2024-01-16T02:17:27;4.23;;;2.90;;
28311;SDS011;15572;48.810;9.148;2024-01-16T02:22:23;7.20;;;3.90;;
28311;SDS011;15572;48.810;9.148;2024-01-16T02:27:25;8.20;;;4.10;;
28311;SDS011;15572;48.810;9.148;2024-01-16T02:32:21;8.80;;;3.93;;
28311;SDS011;15572;48.810;9.148;2024-01-16T02:37:18;11.00;;;4.33;;
28311;SDS011;15572;48.810;9.148;2024-01-16T02:42:14;9.17;;;4.60;;
28311;SDS011;15572;48.810;9.148;2024-01-16T02:47:12;6.93;;;4.23;;
28311;SDS011;15572;48.810;9.148;2024-01-16T02:52:08;8.57;;;4.30;;
28311;SDS011;15572;48.810;9.148;2024-01-16T02:57:05;6.23;;;3.83;;
28311;SDS011;15572;48.810;9.148;2024-01-16T03:02:01;8.50;;;4.20;;
28311;SDS011;15572;48.810;9.148;2024-01-16T03:07:00;8.70;;;4.17;;
28311;SDS011;15572;48.810;9.148;2024-01-16T03:11:56;10.43;;;3.67;;
28311;SDS011;15572;48.810;9.148;2024-01-16T03:16:53;8.47;;;4.40;;
28311;SDS011;15572;48.810;9.148;2024-01-16T03:21:50;7.73;;;4.07;;
28311;SDS011;15572;48.810;9.148;2024-01-16T03:26:48;7.27;;;4.30;;
28311;SDS011;15572;48.810;9.148;2024-01-16T03:31:44;8.77;;;4.17;;
28311;SDS011;15572;48.810;9.148;2024-01-16T03:36:40;8.33;;;4.10;;
28311;SDS011;15572;48.810;9.148;2024-01-16T03:41:37;6.17;;;3.90;;
28311;SDS011;15572;48.810;9.148;2024-01-16T03:46:35;8.97;;;4.03;;
28311;SDS011;15572;48.810;9.148;2024-01-16T03:51:31;6.00;;;3.80;;
28311;SDS011;15572;48.810;9.148;2024-01-16T03:56:27;8.27;;;4.03;;
28311;SDS011;15572;48.810;9.148;2024-01-16T04:01:29;5.23;;;3.43;;
28311;SDS011;15572;48.810;9.148;2024-01-16T04:06:28;8.27;;;3.87;;
28311;SDS011;15572;48.810;9.148;2024-01-16T04:11:24;5.70;;;3.93;;
28311;SDS011;15572;48.810;9.148;2024-01-16T04:16:21;5.97;;;3.70;;
28311;SDS011;15572;48.810;9.148;2024-01-16T04:21:17;7.37;;;4.20;;
28311;SDS011;15572;48.810;9.148;2024-01-16T04:26:15;9.27;;;3.93;;
28311;SDS011;15572;48.810;9.148;2024-01-16T04:31:11;6.20;;;3.67;;
28311;SDS011;15572;48.810;9.148;2024-01-16T04:36:08;7.30;;;3.30;;
28311;SDS011;15572;48.810;9.148;2024-01-16T04:41:05;5.50;;;3.30;;
28311;SDS011;15572;48.810;9.148;2024-01-16T04:46:02;6.30;;;3.50;;
28311;SDS011;15572;48.810;9.148;2024-01-16T04:50:59;8.87;;;4.13;;
28311;SDS011;15572;48.810;9.148;2024-01-16T04:55:55;6.93;;;3.70;;
28311;SDS011;15572;48.810;9.148;2024-01-16T05:00:52;7.13;;;3.60;;
28311;SDS011;15572;48.810;9.148;2024-01-16T05:05:49;6.30;;;3.13;;
28311;SDS011;15572;48.810;9.148;2024-01-16T05:10:46;9.67;;;3.80;;
28311;SDS011;15572;48.810;9.148;2024-01-16T05:15:42;8.13;;;3.57;;
28311;SDS011;15572;48.810;9.148;2024-01-16T05:20:39;8.00;;;3.80;;
28311;SDS011;15572;48.810;9.148;2024-01-16T05:25:37;6.63;;;3.67;;
28311;SDS011;15572;48.810;9.148;2024-01-16T05:30:34;5.57;;;3.30;;
28311;SDS011;15572;48.810;9.148;2024-01-16T05:35:30;10.53;;;3.73;;
28311;SDS011;15572;48.810;9.148;2024-01-16T05:40:26;5.40;;;3.87;;
28311;SDS011;15572;48.810;9.148;2024-01-16T05:45:24;6.60;;;3.57;;
28311;SDS011;15572;48.810;9.148;2024-01-16T05:50:21;5.30;;;3.53;;
28311;SDS011;15572;48.810;9.148;2024-01-16T05:55:17;5.77;;;3.30;;
28311;SDS011;15572;48.810;9.148;2024-01-16T06:00:16;7.33;;;3.60;;
28311;SDS011;15572;48.810;9.148;2024-01-16T06:05:15;5.93;;;3.40;;
28311;SDS011;15572;48.810;9.148;2024-01-16T06:10:11;8.20;;;3.67;;
28311;SDS011;15572;48.810;9.148;2024-01-16T06:15:08;5.53;;;3.27;;
28311;SDS011;15572;48.810;9.148;2024-01-16T06:20:06;11.77;;;4.63;;
28311;SDS011;15572;48.810;9.148;2024-01-16T06:25:05;9.70;;;4.33;;
28311;SDS011;15572;48.810;9.148;2024-01-16T06:30:01;7.13;;;3.67;;
28311;SDS011;15572;48.810;9.148;2024-01-16T06:34:58;9.30;;;4.20;;
28311;SDS011;15572;48.810;9.148;2024-01-16T06:39:55;8.40;;;3.97;;
28311;SDS011;15572;48.810;9.148;2024-01-16T06:44:53;8.20;;;4.03;;
28311;SDS011;15572;48.810;9.148;2024-01-16T06:49:49;7.00;;;3.90;;
28311;SDS011;15572;48.810;9.148;2024-01-16T06:54:46;9.27;;;3.80;;
28311;SDS011;15572;48.810;9.148;2024-01-16T06:59:42;7.37;;;3.60;;
28311;SDS011;15572;48.810;9.148;2024-01-16T07:04:40;8.27;;;4.20;;
28311;SDS011;15572;48.810;9.148;2024-01-16T07:09:36;10.87;;;3.97;;
28311;SDS011;15572;48.810;9.148;2024-01-16T07:14:33;7.33;;;3.60;;
28311;SDS011;15572;48.810;9.148;2024-01-16T07:19:29;6.17;;;3.80;;
28311;SDS011;15572;48.810;9.148;2024-01-16T07:24:27;10.53;;;3.80;;
28311;SDS011;15572;48.810;9.148;2024-01-16T07:29:23;5.03;;;3.07;;
28311;SDS011;15572;48.810;9.148;2024-01-16T07:34:19;4.80;;;3.00;;
28311;SDS011;15572;48.810;9.148;2024-01-16T07:39:17;8.07;;;3.60;;
28311;SDS011;15572;48.810;9.148;2024-01-16T07:44:14;4.87;;;3.10;;
28311;SDS011;15572;48.810;9.148;2024-01-16T07:49:11;4.33;;;2.80;;
28311;SDS011;15572;48.810;9.148;2024-01-16T07:54:08;5.93;;;3.27;;
28311;SDS011;15572;48.810;9.148;2024-01-16T07:59:05;5.10;;;3.10;;
28311;SDS011;15572;48.810;9.148;2024-01-16T08:04:03;5.90;;;3.03;;
28311;SDS011;15572;48.810;9.148;2024-01-16T08:09:00;5.60;;;2.77;;
28311;SDS011;15572;48.810;9.148;2024-01-16T08:13:56;4.27;;;2.43;;
28311;SDS011;15572;48.810;9.148;2024-01-16T08:18:53;4.80;;;2.80;;
28311;SDS011;15572;48.810;9.148;2024-01-16T08:23:50;4.73;;;2.87;;
28311;SDS011;15572;48.810;9.148;2024-01-16T08:28:47;5.80;;;2.70;;
28311;SDS011;15572;48.810;9.148;2024-01-16T08:33:43;4.30;;;2.50;;
28311;SDS011;15572;48.810;9.148;2024-01-16T08:38:40;4.67;;;2.53;;
28311;SDS011;15572;48.810;9.148;2024-01-16T08:43:38;5.60;;;2.73;;
28311;SDS011;15572;48.810;9.148;2024-01-16T08:48:34;4.10;;;2.37;;
28311;SDS011;15572;48.810;9.148;2024-01-16T08:53:31;4.33;;;2.77;;
28311;SDS011;15572;48.810;9.148;2024-01-16T08:58:29;4.07;;;2.93;;
28311;SDS011;15572;48.810;9.148;2024-01-16T09:03:29;5.20;;;2.23;;
28311;SDS011;15572;48.810;9.148;2024-01-16T09:08:25;5.07;;;2.43;;
28311;SDS011;15572;48.810;9.148;2024-01-16T09:13:22;4.20;;;2.63;;
28311;SDS011;15572;48.810;9.148;2024-01-16T09:18:19;4.43;;;2.50;;
28311;SDS011;15572;48.810;9.148;2024-01-16T09:23:17;3.87;;;2.47;;
28311;SDS011;15572;48.810;9.148;2024-01-16T09:28:13;5.57;;;2.90;;
28311;SDS011;15572;48.810;9.148;2024-01-16T09:33:09;4.47;;;2.80;;
28311;SDS011;15572;48.810;9.148;2024-01-16T09:38:06;5.10;;;2.70;;
28311;SDS011;15572;48.810;9.148;2024-01-16T09:43:05;3.57;;;2.60;;
28311;SDS011;15572;48.810;9.148;2024-01-16T09:48:03;7.07;;;3.13;;
28311;SDS011;15572;48.810;9.148;2024-01-16T09:53:03;7.43;;;3.30;;
28311;SDS011;15572;48.810;9.148;2024-01-16T09:57:59;9.73;;;3.17;;
28311;SDS011;15572;48.810;9.148;2024-01-16T10:02:59;5.77;;;3.23;;
28311;SDS011;15572;48.810;9.148;2024-01-16T10:07:56;9.20;;;3.90;;
28311;SDS011;15572;48.810;9.148;2024-01-16T10:12:54;5.77;;;3.70;;
28311;SDS011;15572;48.810;9.148;2024-01-16T10:17:51;5.17;;;2.97;;
28311;SDS011;15572;48.810;9.148;2024-01-16T10:22:53;7.10;;;3.20;;
28311;SDS011;15572;48.810;9.148;2024-01-16T10:27:50;4.77;;;2.90;;
28311;SDS011;15572;48.810;9.148;2024-01-16T10:33:12;5.90;;;3.47;;
28311;SDS011;15572;48.810;9.148;2024-01-16T10:38:11;6.60;;;3.57;;
28311;SDS011;15572;48.810;9.148;2024-01-16T10:43:17;6.87;;;3.67;;
28311;SDS011;15572;48.810;9.148;2024-01-16T10:48:13;5.40;;;2.93;;
28311;SDS011;15572;48.810;9.148;2024-01-16T10:53:12;7.60;;;3.30;;
28311;SDS011;15572;48.810;9.148;2024-01-16T10:58:13;7.40;;;3.47;;
28311;SDS011;15572;48.810;9.148;2024-01-16T11:03:11;6.40;;;3.13;;
28311;SDS011;15572;48.810;9.148;2024-01-16T11:08:16;5.83;;;2.93;;
28311;SDS011;15572;48.810;9.148;2024-01-16T11:13:13;6.37;;;3.20;;
28311;SDS011;15572;48.810;9.148;2024-01-16T11:18:10;5.57;;;2.80;;
28311;SDS011;15572;48.810;9.148;2024-01-16T11:23:10;4.03;;;2.53;;
28311;SDS011;15572;48.810;9.148;2024-01-16T11:28:09;8.10;;;3.17;;
28311;SDS011;15572;48.810;9.148;2024-01-16T11:33:09;9.53;;;3.20;;
28311;SDS011;15572;48.810;9.148;2024-01-16T11:38:38;10.13;;;3.63;;
28311;SDS011;15572;48.810;9.148;2024-01-16T11:43:36;7.00;;;3.53;;
28311;SDS011;15572;48.810;9.148;2024-01-16T11:48:33;9.43;;;3.77;;
28311;SDS011;15572;48.810;9.148;2024-01-16T11:53:36;8.03;;;3.23;;
28311;SDS011;15572;48.810;9.148;2024-01-16T11:58:39;7.93;;;3.00;;
28311;SDS011;15572;48.810;9.148;2024-01-16T12:03:44;6.82;;;3.83;;
28311;SDS011;15572;48.810;9.148;2024-01-16T12:08:40;6.47;;;3.70;;
28311;SDS011;15572;48.810;9.148;2024-01-16T12:13:38;10.50;;;3.92;;
28311;SDS011;15572;48.810;9.148;2024-01-16T12:18:34;4.18;;;2.47;;
28311;SDS011;15572;48.810;9.148;2024-01-16T12:23:31;7.03;;;1.93;;
28311;SDS011;15572;48.810;9.148;2024-01-16T12:28:29;6.33;;;2.20;;
28311;SDS011;15572;48.810;9.148;2024-01-16T12:33:27;5.03;;;2.03;;
28311;SDS011;15572;48.810;9.148;2024-01-16T12:38:23;3.70;;;2.10;;
28311;SDS011;15572;48.810;9.148;2024-01-16T12:43:20;4.30;;;2.00;;
28311;SDS011;15572;48.810;9.148;2024-01-16T12:48:21;5.77;;;2.50;;
28311;SDS011;15572;48.810;9.148;2024-01-16T12:53:21;3.30;;;2.20;;
28311;SDS011;15572;48.810;9.148;2024-01-16T12:58:19;4.60;;;2.00;;
28311;SDS011;15572;48.810;9.148;2024-01-16T13:03:19;6.10;;;2.47;;
28311;SDS011;15572;48.810;9.148;2024-01-16T13:08:17;3.40;;;1.93;;
28311;SDS011;15572;48.810;9.148;2024-01-16T13:13:16;5.07;;;2.50;;
28311;SDS011;15572;48.810;9.148;2024-01-16T13:18:19;3.77;;;2.20;;
28311;SDS011;15572;48.810;9.148;2024-01-16T13:23:17;3.00;;;2.20;;
28311;SDS011;15572;48.810;9.148;2024-01-16T13:28:14;3.57;;;2.20;;
28311;SDS011;15572;48.810;9.148;2024-01-16T13:33:12;4.07;;;1.90;;
28311;SDS011;15572;48.810;9.148;2024-01-16T13:38:08;4.13;;;2.20;;
28311;SDS011;15572;48.810;9.148;2024-01-16T13:43:06;3.83;;;2.10;;
28311;SDS011;15572;48.810;9.148;2024-01-16T13:48:04;5.37;;;1.93;;
28311;SDS011;15572;48.810;9.148;2024-01-16T13:53:02;3.80;;;2.10;;
28311;SDS011;15572;48.810;9.148;2024-01-16T13:57:59;4.27;;;1.90;;
28311;SDS011;15572;48.810;9.148;2024-01-16T14:02:55;3.17;;;2.13;;
28311;SDS011;15572;48.810;9.148;2024-01-16T14:07:53;2.80;;;1.90;;
28311;SDS011;15572;48.810;9.148;2024-01-16T14:12:49;3.83;;;2.10;;
28311;SDS011;15572;48.810;9.148;2024-01-16T14:17:47;5.40;;;2.10;;
28311;SDS011;15572;48.810;9.148;2024-01-16T14:22:44;4.43;;;2.10;;
28311;SDS011;15572;48.810;9.148;2024-01-16T14:27:42;5.07;;;2.07;;
28311;SDS011;15572;48.810;9.148;2024-01-16T14:32:40;3.17;;;2.07;;
28311;SDS011;15572;48.810;9.148;2024-01-16T14:37:37;7.23;;;2.70;;
28311;SDS011;15572;48.810;9.148;2024-01-16T14:42:34;4.33;;;2.00;;
28311;SDS011;15572;48.810;9.148;2024-01-16T14:47:31;6.03;;;1.70;;
28311;SDS011;15572;48.810;9.148;2024-01-16T14:52:28;2.53;;;1.50;;
28311;SDS011;15572;48.810;9.148;2024-01-16T14:57:24;3.57;;;2.00;;
28311;SDS011;15572;48.810;9.148;2024-01-16T15:02:22;4.87;;;2.00;;
28311;SDS011;15572;48.810;9.148;2024-01-16T15:07:19;3.63;;;2.60;;
28311;SDS011;15572;48.810;9.148;2024-01-16T15:12:16;7.80;;;3.53;;
28311;SDS011;15572;48.810;9.148;2024-01-16T15:17:13;6.23;;;3.17;;
28311;SDS011;15572;48.810;9.148;2024-01-16T15:22:10;4.43;;;2.90;;
28311;SDS011;15572;48.810;9.148;2024-01-16T15:27:08;5.93;;;3.67;;
28311;SDS011;15572;48.810;9.148;2024-01-16T15:32:05;5.47;;;2.57;;
28311;SDS011;15572;48.810;9.148;2024-01-16T15:37:01;7.17;;;2.73;;
28311;SDS011;15572;48.810;9.148;2024-01-16T15:41:58;3.77;;;2.33;;
28311;SDS011;15572;48.810;9.148;2024-01-16T15:46:59;6.27;;;2.80;;
28311;SDS011;15572;48.810;9.148;2024-01-16T15:51:57;11.73;;;5.23;;
28311;SDS011;15572;48.810;9.148;2024-01-16T15:56:54;12.50;;;8.00;;
28311;SDS011;15572;48.810;9.148;2024-01-16T16:01:51;18.07;;;8.80;;
28311;SDS011;15572;48.810;9.148;2024-01-16T16:06:49;15.37;;;6.87;;
28311;SDS011;15572;48.810;9.148;2024-01-16T16:11:46;20.73;;;7.83;;
28311;SDS011;15572;48.810;9.148;2024-01-16T16:16:44;36.33;;;14.93;;
28311;SDS011;15572;48.810;9.148;2024-01-16T16:21:43;26.60;;;11.57;;
28311;SDS011;15572;48.810;9.148;2024-01-16T16:26:41;14.97;;;6.90;;
28311;SDS011;15572;48.810;9.148;2024-01-16T16:31:39;8.53;;;3.10;;
28311;SDS011;15572;48.810;9.148;2024-01-16T16:36:36;9.90;;;2.50;;
28311;SDS011;15572;48.810;9.148;2024-01-16T16:41:34;4.33;;;2.47;;
28311;SDS011;15572;48.810;9.148;2024-01-16T16:46:33;5.67;;;2.40;;
28311;SDS011;15572;48.810;9.148;2024-01-16T16:51:29;7.20;;;3.27;;
28311;SDS011;15572;48.810;9.148;2024-01-16T16:56:26;10.13;;;4.07;;
28311;SDS011;15572;48.810;9.148;2024-01-16T17:01:23;7.83;;;3.13;;
28311;SDS011;15572;48.810;9.148;2024-01-16T17:06:20;5.10;;;2.77;;
28311;SDS011;15572;48.810;9.148;2024-01-16T17:11:17;5.03;;;2.50;;
28311;SDS011;15572;48.810;9.148;2024-01-16T17:16:13;4.33;;;2.60;;
28311;SDS011;15572;48.810;9.148;2024-01-16T17:21:12;6.53;;;4.67;;
28311;SDS011;15572;48.810;9.148;2024-01-16T17:26:10;10.50;;;4.80;;
28311;SDS011;15572;48.810;9.148;2024-01-16T17:31:06;7.30;;;4.07;;
28311;SDS011;15572;48.810;9.148;2024-01-16T17:36:03;6.90;;;2.83;;
28311;SDS011;15572;48.810;9.148;2024-01-16T17:41:05;9.53;;;4.60;;
28311;SDS011;15572;48.810;9.148;2024-01-16T17:46:04;119.77;;;42.70;;
28311;SDS011;15572;48.810;9.148;2024-01-16T17:51:01;106.63;;;34.50;;
28311;SDS011;15572;48.810;9.148;2024-01-16T17:55:58;47.80;;;18.10;;
28311;SDS011;15572;48.810;9.148;2024-01-16T18:00:54;67.30;;;29.47;;
28311;SDS011;15572;48.810;9.148;2024-01-16T18:05:52;25.67;;;11.87;;
28311;SDS011;15572;48.810;9.148;2024-01-16T18:10:48;9.57;;;5.20;;
28311;SDS011;15572;48.810;9.148;2024-01-16T18:15:48;24.27;;;13.27;;
28311;SDS011;15572;48.810;9.148;2024-01-16T18:20:44;24.03;;;13.23;;
28311;SDS011;15572;48.810;9.148;2024-01-16T18:25:42;35.30;;;18.50;;
28311;SDS011;15572;48.810;9.148;2024-01-16T18:30:41;16.13;;;7.50;;
28311;SDS011;15572;48.810;9.148;2024-01-16T18:35:37;10.43;;;5.03;;
28311;SDS011;15572;48.810;9.148;2024-01-16T18:40:35;19.07;;;7.90;;
28311;SDS011;15572;48.810;9.148;2024-01-16T18:45:33;19.43;;;6.97;;
28311;SDS011;15572;48.810;9.148;2024-01-16T18:50:29;15.97;;;6.90;;
28311;SDS011;15572;48.810;9.148;2024-01-16T18:55:28;11.40;;;5.93;;
28311;SDS011;15572;48.810;9.148;2024-01-16T19:00:24;28.93;;;8.80;;
28311;SDS011;15572;48.810;9.148;2024-01-16T19:05:23;37.90;;;11.50;;
28311;SDS011;15572;48.810;9.148;2024-01-16T19:10:20;28.60;;;10.80;;
28311;SDS011;15572;48.810;9.148;2024-01-16T19:15:18;18.43;;;8.30;;
28311;SDS011;15572;48.810;9.148;2024-01-16T19:20:16;22.07;;;7.70;;
28311;SDS011;15572;48.810;9.148;2024-01-16T19:25:18;19.87;;;6.90;;
28311;SDS011;15572;48.810;9.148;2024-01-16T19:30:16;16.10;;;7.67;;
28311;SDS011;15572;48.810;9.148;2024-01-16T19:35:14;16.80;;;6.30;;
28311;SDS011;15572;48.810;9.148;2024-01-16T19:40:11;17.43;;;7.00;;
28311;SDS011;15572;48.810;9.148;2024-01-16T19:45:12;21.77;;;8.17;;
28311;SDS011;15572;48.810;9.148;2024-01-16T19:50:09;10.33;;;5.40;;
28311;SDS011;15572;48.810;9.148;2024-01-16T19:55:13;11.10;;;5.53;;
28311;SDS011;15572;48.810;9.148;2024-01-16T20:00:11;11.53;;;5.90;;
28311;SDS011;15572;48.810;9.148;2024-01-16T20:05:09;15.50;;;7.10;;
28311;SDS011;15572;48.810;9.148;2024-01-16T20:10:10;19.50;;;9.37;;
28311;SDS011;15572;48.810;9.148;2024-01-16T20:15:09;27.10;;;10.80;;
28311;SDS011;15572;48.810;9.148;2024-01-16T20:20:09;23.77;;;11.50;;
28311;SDS011;15572;48.810;9.148;2024-01-16T20:25:08;27.97;;;14.10;;
28311;SDS011;15572;48.810;9.148;2024-01-16T20:30:07;26.13;;;13.70;;
28311;SDS011;15572;48.810;9.148;2024-01-16T20:35:06;27.77;;;13.37;;
28311;SDS011;15572;48.810;9.148;2024-01-16T20:40:04;27.93;;;13.83;;
28311;SDS011;15572;48.810;9.148;2024-01-16T20:45:02;33.47;;;16.83;;
28311;SDS011;15572;48.810;9.148;2024-01-16T20:50:00;33.73;;;15.97;;
28311;SDS011;15572;48.810;9.148;2024-01-16T20:54:59;17.20;;;9.43;;
28311;SDS011;15572;48.810;9.148;2024-01-16T20:59:59;22.33;;;11.03;;
28311;SDS011;15572;48.810;9.148;2024-01-16T21:04:56;16.33;;;7.87;;
28311;SDS011;15572;48.810;9.148;2024-01-16T21:09:53;13.87;;;7.70;;
28311;SDS011;15572;48.810;9.148;2024-01-16T21:14:49;13.57;;;6.50;;
28311;SDS011;15572;48.810;9.148;2024-01-16T21:19:47;18.23;;;9.47;;
28311;SDS011;15572;48.810;9.148;2024-01-16T21:24:44;21.63;;;10.87;;
28311;SDS011;15572;48.810;9.148;2024-01-16T21:29:41;18.00;;;9.80;;
28311;SDS011;15572;48.810;9.148;2024-01-16T21:34:39;18.97;;;8.77;;
28311;SDS011;15572;48.810;9.148;2024-01-16T21:39:37;16.53;;;8.60;;
28311;SDS011;15572;48.810;9.148;2024-01-16T21:44:33;16.17;;;7.33;;
28311;SDS011;15572;48.810;9.148;2024-01-16T21:49:30;13.27;;;7.27;;
28311;SDS011;15572;48.810;9.148;2024-01-16T21:54:26;12.63;;;6.77;;
28311;SDS011;15572;48.810;9.148;2024-01-16T21:59:26;14.40;;;7.57;;
28311;SDS011;15572;48.810;9.148;2024-01-16T22:04:23;15.97;;;7.23;;
28311;SDS011;15572;48.810;9.148;2024-01-16T22:09:19;15.30;;;7.97;;
28311;SDS011;15572;48.810;9.148;2024-01-16T22:14:21;14.50;;;7.07;;
28311;SDS011;15572;48.810;9.148;2024-01-16T22:19:19;16.90;;;8.07;;
28311;SDS011;15572;48.810;9.148;2024-01-16T22:24:15;17.43;;;9.83;;
28311;SDS011;15572;48.810;9.148;2024-01-16T22:29:12;18.37;;;9.13;;
28311;SDS011;15572;48.810;9.148;2024-01-16T22:34:08;17.70;;;9.03;;
28311;SDS011;15572;48.810;9.148;2024-01-16T22:39:06;20.03;;;9.23;;
28311;SDS011;15572;48.810;9.148;2024-01-16T22:44:10;15.37;;;8.80;;
28311;SDS011;15572;48.810;9.148;2024-01-16T22:49:06;20.37;;;10.10;;
28311;SDS011;15572;48.810;9.148;2024-01-16T22:54:04;14.97;;;7.60;;
28311;SDS011;15572;48.810;9.148;2024-01-16T22:59:03;10.87;;;6.50;;
28311;SDS011;15572;48.810;9.148;2024-01-16T23:04:00;16.33;;;7.40;;
28311;SDS011;15572;48.810;9.148;2024-01-16T23:08:57;17.20;;;7.03;;
28311;SDS011;15572;48.810;9.148;2024-01-16T23:13:54;14.93;;;7.10;;
28311;SDS011;15572;48.810;9.148;2024-01-16T23:18:52;18.37;;;7.47;;
28311;SDS011;15572;48.810;9.148;2024-01-16T23:23:48;15.30;;;8.73;;
28311;SDS011;15572;48.810;9.148;2024-01-16T23:28:45;15.33;;;7.50;;
28311;SDS011;15572;48.810;9.148;2024-01-16T23:33:42;15.93;;;7.40;;
28311;SDS011;15572;48.810;9.148;2024-01-16T23:38:40;14.90;;;7.63;;
28311;SDS011;15572;48.810;9.148;2024-01-16T23:43:36;14.83;;;7.63;;
28311;SDS011;15572;48.810;9.148;2024-01-16T23:48:33;16.47;;;8.80;;
28311;SDS011;15572;48.810;9.148;2024-01-16T23:53:29;14.33;;;8.97;;
28311;SDS011;15572;48.810;9.148;2024-01-16T23:58:28;16.43;;;9.17;;
